createdAt,value
2017-09-15T00:00:52.953Z,3.50
2017-09-15T00:03:20.529Z,3.83
2017-09-15T00:05:48.083Z,3.37
2017-09-15T00:08:16.051Z,2.62
2017-09-15T00:10:43.626Z,1.98
2017-09-15T00:13:11.187Z,4.63
2017-09-15T00:15:38.772Z,1.33
2017-09-15T00:18:06.338Z,2.00
2017-09-15T00:20:33.918Z,2.60
2017-09-15T00:23:01.481Z,1.70
2017-09-15T00:25:29.832Z,1.87
2017-09-15T00:27:57.406Z,2.30
2017-09-15T00:30:26.042Z,2.80
2017-09-15T00:32:53.611Z,1.20
2017-09-15T00:35:21.168Z,1.07
2017-09-15T00:37:48.770Z,3.80
2017-09-15T00:40:17.146Z,3.40
2017-09-15T00:42:44.720Z,1.97
2017-09-15T00:45:13.097Z,4.00
2017-09-15T00:47:40.692Z,5.68
2017-09-15T00:50:08.261Z,1.23
2017-09-15T00:52:36.131Z,2.50
2017-09-15T00:55:03.713Z,2.50
2017-09-15T00:57:31.270Z,2.30
2017-09-15T00:59:58.916Z,3.20
2017-09-15T01:02:26.474Z,1.60
2017-09-15T01:04:54.049Z,2.87
2017-09-15T01:07:21.603Z,7.43
2017-09-15T01:09:49.437Z,1.48
2017-09-15T01:12:17.015Z,5.90
2017-09-15T01:14:46.087Z,4.97
2017-09-15T01:17:13.660Z,4.23
2017-09-15T01:19:41.223Z,3.87
2017-09-15T01:22:09.168Z,2.73
2017-09-15T01:24:36.734Z,2.57
2017-09-15T01:27:04.304Z,3.17
2017-09-15T01:29:31.890Z,1.97
2017-09-15T01:31:59.485Z,4.20
2017-09-15T01:34:27.087Z,2.13
2017-09-15T01:36:54.669Z,2.93
2017-09-15T01:39:22.248Z,1.50
2017-09-15T01:41:50.564Z,5.20
2017-09-15T01:44:18.435Z,3.17
2017-09-15T01:46:46.033Z,4.60
2017-09-15T01:49:13.600Z,3.37
2017-09-15T01:51:41.941Z,3.23
2017-09-15T01:54:09.496Z,1.10
2017-09-15T01:56:37.081Z,4.03
2017-09-15T01:59:04.652Z,3.17
2017-09-15T02:01:33.913Z,1.90
2017-09-15T02:04:01.491Z,2.20
2017-09-15T02:06:29.472Z,2.92
2017-09-15T02:08:57.037Z,5.55
2017-09-15T02:11:25.372Z,2.10
2017-09-15T02:13:52.931Z,0.70
2017-09-15T02:16:21.281Z,3.53
2017-09-15T02:18:48.876Z,7.12
2017-09-15T02:21:21.182Z,3.17
2017-09-15T02:23:49.520Z,2.23
2017-09-15T02:26:17.077Z,3.33
2017-09-15T02:28:44.935Z,1.57
2017-09-15T02:31:12.514Z,2.20
2017-09-15T02:33:40.079Z,3.80
2017-09-15T02:36:07.661Z,1.57
2017-09-15T02:38:36.036Z,7.30
2017-09-15T02:41:04.391Z,3.10
2017-09-15T02:43:31.948Z,2.97
2017-09-15T02:45:59.811Z,1.77
2017-09-15T02:48:27.391Z,1.87
2017-09-15T02:50:55.735Z,4.27
2017-09-15T02:53:23.309Z,5.33
2017-09-15T02:55:50.887Z,1.50
2017-09-15T02:58:18.474Z,2.40
2017-09-15T03:00:46.040Z,2.63
2017-09-15T03:03:13.939Z,1.87
2017-09-15T03:05:41.492Z,1.50
2017-09-15T03:08:09.059Z,2.33
2017-09-15T03:10:36.630Z,3.10
2017-09-15T03:13:04.203Z,2.27
2017-09-15T03:15:31.801Z,6.37
2017-09-15T03:17:59.360Z,7.57
2017-09-15T03:20:27.391Z,1.63
2017-09-15T03:22:54.961Z,1.67
2017-09-15T03:25:23.328Z,1.83
2017-09-15T03:27:50.909Z,2.13
2017-09-15T03:30:19.253Z,2.10
2017-09-15T03:32:46.820Z,2.50
2017-09-15T03:35:14.418Z,3.58
2017-09-15T03:37:42.333Z,2.50
2017-09-15T03:40:09.938Z,1.57
2017-09-15T03:42:37.507Z,2.93
2017-09-15T03:45:05.084Z,1.70
2017-09-15T03:47:32.669Z,1.83
2017-09-15T03:50:00.253Z,4.90
2017-09-15T03:52:28.585Z,1.63
2017-09-15T03:54:56.558Z,4.20
2017-09-15T03:57:24.131Z,4.53
2017-09-15T03:59:51.710Z,3.70
2017-09-15T04:02:20.061Z,1.20
2017-09-15T04:04:47.627Z,3.77
2017-09-15T04:07:15.196Z,3.10
2017-09-15T04:09:42.773Z,1.53
2017-09-15T04:12:11.110Z,1.47
2017-09-15T04:14:39.936Z,2.57
2017-09-15T04:17:08.556Z,3.63
2017-09-15T04:19:36.935Z,1.77
2017-09-15T04:22:04.508Z,6.63
2017-09-15T04:24:32.080Z,2.40
2017-09-15T04:26:59.646Z,3.97
2017-09-15T04:29:27.232Z,1.37
2017-09-15T04:31:55.598Z,3.23
2017-09-15T04:34:23.188Z,2.23
2017-09-15T04:36:50.764Z,3.95
2017-09-15T04:39:18.624Z,3.47
2017-09-15T04:41:46.179Z,1.55
2017-09-15T04:44:13.757Z,2.57
2017-09-15T04:46:41.336Z,7.07
2017-09-15T04:49:08.916Z,4.40
2017-09-15T04:51:37.210Z,2.83
2017-09-15T04:54:05.568Z,6.13
2017-09-15T04:56:33.150Z,3.83
2017-09-15T04:59:01.482Z,2.33
2017-09-15T05:01:29.350Z,4.33
2017-09-15T05:03:56.932Z,4.67
2017-09-15T05:06:24.510Z,3.43
2017-09-15T05:08:52.097Z,1.37
2017-09-15T05:11:19.682Z,1.40
2017-09-15T05:13:47.262Z,1.37
2017-09-15T05:16:14.814Z,1.80
2017-09-15T05:18:42.388Z,2.70
2017-09-15T05:21:09.964Z,3.20
2017-09-15T05:23:38.388Z,2.03
2017-09-15T05:26:05.983Z,1.08
2017-09-15T05:28:33.549Z,2.80
2017-09-15T05:31:01.923Z,3.77
2017-09-15T05:33:30.404Z,3.33
2017-09-15T05:35:57.982Z,3.10
2017-09-15T05:38:26.322Z,2.10
2017-09-15T05:40:53.904Z,2.63
2017-09-15T05:43:22.253Z,7.68
2017-09-15T05:45:50.591Z,4.83
2017-09-15T05:48:18.162Z,4.30
2017-09-15T05:50:45.745Z,3.35
2017-09-15T05:53:13.329Z,2.83
2017-09-15T05:55:40.894Z,2.10
2017-09-15T05:58:08.476Z,3.27
2017-09-15T06:00:36.819Z,5.37
2017-09-15T06:03:04.405Z,1.10
2017-09-15T06:05:32.746Z,2.90
2017-09-15T06:08:00.345Z,4.17
2017-09-15T06:10:27.924Z,2.55
2017-09-15T06:12:55.821Z,2.55
2017-09-15T06:15:23.400Z,5.70
2017-09-15T06:17:50.952Z,2.17
2017-09-15T06:20:18.542Z,2.23
2017-09-15T06:22:46.882Z,3.15
2017-09-15T06:25:14.487Z,2.80
2017-09-15T06:27:42.054Z,2.97
2017-09-15T06:30:09.646Z,2.90
2017-09-15T06:32:37.229Z,2.00
2017-09-15T06:35:05.182Z,1.40
2017-09-15T06:37:32.766Z,2.40
2017-09-15T06:40:01.104Z,1.60
2017-09-15T06:42:28.688Z,2.30
2017-09-15T06:44:56.244Z,4.03
2017-09-15T06:47:23.824Z,2.73
2017-09-15T06:49:51.408Z,3.40
2017-09-15T06:52:19.883Z,2.20
2017-09-15T06:54:48.647Z,2.33
2017-09-15T06:57:17.482Z,2.13
2017-09-15T06:59:45.097Z,1.47
2017-09-15T07:02:13.457Z,4.83
2017-09-15T07:04:41.027Z,1.37
2017-09-15T07:07:09.380Z,6.93
2017-09-15T07:09:36.973Z,2.95
2017-09-15T07:12:04.547Z,2.07
2017-09-15T07:14:32.132Z,6.23
2017-09-15T07:16:59.721Z,1.93
2017-09-15T07:19:27.313Z,7.60
2017-09-15T07:21:55.659Z,7.83
2017-09-15T07:24:23.269Z,5.83
2017-09-15T07:26:50.844Z,3.03
2017-09-15T07:29:18.754Z,4.47
2017-09-15T07:31:46.327Z,1.97
2017-09-15T07:34:13.909Z,1.83
2017-09-15T07:36:41.528Z,3.00
2017-09-15T07:39:09.093Z,2.23
2017-09-15T07:41:36.708Z,4.90
2017-09-15T07:44:04.299Z,7.43
2017-09-15T07:46:32.659Z,5.93
2017-09-15T07:49:00.246Z,4.03
2017-09-15T07:51:28.210Z,4.60
2017-09-15T07:53:55.790Z,5.93
2017-09-15T07:56:24.143Z,4.55
2017-09-15T07:58:51.756Z,1.93
2017-09-15T08:01:19.333Z,1.80
2017-09-15T08:03:46.924Z,2.90
2017-09-15T08:06:14.524Z,2.40
2017-09-15T08:08:42.908Z,3.37
2017-09-15T08:11:11.689Z,3.23
2017-09-15T08:13:41.258Z,1.40
2017-09-15T08:16:08.860Z,1.83
2017-09-15T08:18:36.457Z,2.33
2017-09-15T08:21:04.053Z,2.70
2017-09-15T08:23:31.632Z,2.90
2017-09-15T08:26:00.012Z,2.20
2017-09-15T08:28:27.690Z,2.20
2017-09-15T08:30:55.747Z,1.33
2017-09-15T08:33:23.343Z,2.90
2017-09-15T08:35:50.937Z,3.23
2017-09-15T08:38:18.569Z,1.33
2017-09-15T08:40:46.159Z,3.83
2017-09-15T08:43:13.746Z,5.15
2017-09-15T08:45:42.706Z,1.33
2017-09-15T08:48:10.328Z,1.63
2017-09-15T08:50:37.906Z,2.10
2017-09-15T08:53:05.510Z,2.57
2017-09-15T08:55:33.885Z,1.73
2017-09-15T08:58:01.829Z,3.63
2017-09-15T09:00:29.410Z,0.67
2017-09-15T09:02:57.786Z,1.08
2017-09-15T09:05:26.147Z,3.15
2017-09-15T09:07:53.736Z,2.90
2017-09-15T09:10:21.350Z,1.10
2017-09-15T09:12:48.932Z,5.07
2017-09-15T09:15:16.531Z,1.27
2017-09-15T09:17:44.113Z,5.77
2017-09-15T09:20:12.031Z,5.67
2017-09-15T09:22:40.391Z,4.90
2017-09-15T09:25:07.976Z,1.20
2017-09-15T09:27:35.604Z,1.30
2017-09-15T09:30:03.180Z,1.90
2017-09-15T09:32:31.565Z,4.23
2017-09-15T09:34:59.901Z,4.97
2017-09-15T09:37:27.492Z,2.83
2017-09-15T09:39:55.822Z,0.73
2017-09-15T09:42:23.436Z,1.03
2017-09-15T09:44:51.803Z,2.43
2017-09-15T09:47:20.455Z,3.63
2017-09-15T09:49:48.041Z,2.47
2017-09-15T09:52:15.636Z,2.80
2017-09-15T09:54:43.219Z,2.00
2017-09-15T09:57:10.829Z,2.17
2017-09-15T09:59:39.191Z,2.80
2017-09-15T10:02:06.787Z,1.87
2017-09-15T10:04:34.395Z,4.07
2017-09-15T10:07:01.990Z,2.33
2017-09-15T10:09:30.627Z,3.07
2017-09-15T10:11:58.199Z,2.40
2017-09-15T10:14:25.779Z,1.57
2017-09-15T10:16:53.369Z,1.43
2017-09-15T10:19:20.981Z,2.17
2017-09-15T10:21:48.574Z,2.93
2017-09-15T10:24:16.931Z,1.85
2017-09-15T10:26:44.532Z,3.83
2017-09-15T10:29:12.124Z,1.98
2017-09-15T10:31:39.762Z,2.63
2017-09-15T10:34:07.363Z,3.40
2017-09-15T10:36:34.954Z,1.90
2017-09-15T10:39:02.540Z,1.47
2017-09-15T10:41:30.137Z,0.80
2017-09-15T10:43:57.726Z,5.47
2017-09-15T10:46:26.078Z,1.90
2017-09-15T10:48:53.665Z,5.43
2017-09-15T10:51:22.023Z,1.63
2017-09-15T10:53:49.620Z,5.30
2017-09-15T10:56:17.193Z,5.00
2017-09-15T11:01:47.992Z,2.80
2017-09-15T11:04:15.954Z,2.73
2017-09-15T11:06:43.527Z,1.53
2017-09-15T11:09:11.122Z,1.97
2017-09-15T11:11:38.701Z,2.97
2017-09-15T11:14:06.268Z,4.67
2017-09-15T11:16:33.851Z,2.13
2017-09-15T11:19:01.439Z,3.00
2017-09-15T11:21:29.806Z,1.63
2017-09-15T11:23:57.373Z,1.10
2017-09-15T11:26:25.994Z,2.17
2017-09-15T11:28:53.551Z,1.97
2017-09-15T11:31:21.117Z,4.90
2017-09-15T11:33:48.726Z,1.57
2017-09-15T11:36:17.124Z,1.90
2017-09-15T11:38:45.435Z,1.10
2017-09-15T11:41:13.013Z,2.07
2017-09-15T11:43:40.899Z,1.23
2017-09-15T11:46:08.474Z,1.90
2017-09-15T11:48:36.834Z,0.87
2017-09-15T11:51:04.413Z,2.40
2017-09-15T11:53:32.774Z,0.77
2017-09-15T11:56:01.160Z,2.30
2017-09-15T11:58:28.846Z,3.60
2017-09-15T12:00:56.782Z,1.60
2017-09-15T12:03:24.391Z,2.93
2017-09-15T12:05:51.964Z,6.73
2017-09-15T12:08:19.547Z,2.33
2017-09-15T12:10:47.116Z,1.27
2017-09-15T12:13:14.727Z,2.60
2017-09-15T12:15:42.303Z,1.80
2017-09-15T12:18:10.187Z,3.50
2017-09-15T12:20:37.769Z,1.53
2017-09-15T12:23:06.116Z,2.53
2017-09-15T12:25:33.722Z,2.03
2017-09-15T12:28:02.077Z,1.30
2017-09-15T12:30:30.409Z,4.03
2017-09-15T12:32:57.984Z,1.62
2017-09-15T12:35:25.959Z,1.90
2017-09-15T12:37:53.530Z,1.40
2017-09-15T12:40:21.145Z,2.47
2017-09-15T12:42:48.764Z,2.27
2017-09-15T12:45:16.365Z,1.90
2017-09-15T12:47:43.970Z,1.97
2017-09-15T12:50:11.546Z,3.60
2017-09-15T12:52:40.237Z,1.30
2017-09-15T12:55:08.589Z,2.50
2017-09-15T12:57:36.167Z,0.97
2017-09-15T13:00:04.530Z,2.90
2017-09-15T13:02:32.111Z,2.10
2017-09-15T13:05:00.467Z,1.73
2017-09-15T13:07:28.037Z,3.90
2017-09-15T13:09:56.421Z,3.90
2017-09-15T13:12:23.988Z,3.00
2017-09-15T13:14:52.578Z,2.27
2017-09-15T13:17:20.928Z,3.77
2017-09-15T13:19:48.532Z,2.03
2017-09-15T13:22:16.116Z,2.00
2017-09-15T13:24:43.713Z,2.33
2017-09-15T13:27:12.075Z,1.67
2017-09-15T13:29:39.659Z,1.97
2017-09-15T13:32:07.249Z,2.57
2017-09-15T13:34:34.827Z,3.30
2017-09-15T13:37:02.661Z,3.07
2017-09-15T13:39:30.224Z,3.27
2017-09-15T13:41:57.813Z,1.87
2017-09-15T13:44:25.421Z,2.80
2017-09-15T13:46:53.774Z,2.20
2017-09-15T13:49:21.371Z,3.50
2017-09-15T13:51:48.972Z,2.43
2017-09-15T13:54:16.581Z,2.83
2017-09-15T13:56:44.928Z,2.30
2017-09-15T13:59:12.803Z,2.50
2017-09-15T14:01:40.440Z,3.60
2017-09-15T14:04:08.013Z,2.53
2017-09-15T14:06:35.595Z,2.53
2017-09-15T14:09:03.187Z,2.67
2017-09-15T14:11:30.759Z,1.00
2017-09-15T14:13:58.342Z,0.90
2017-09-15T14:16:25.965Z,1.67
2017-09-15T14:18:53.553Z,1.97
2017-09-15T14:21:21.410Z,2.03
2017-09-15T14:23:48.972Z,1.73
2017-09-15T14:26:16.579Z,2.00
2017-09-15T14:28:44.944Z,3.40
2017-09-15T14:31:12.532Z,2.33
2017-09-15T14:33:40.126Z,2.10
2017-09-15T14:36:07.713Z,2.57
2017-09-15T14:38:35.329Z,0.90
2017-09-15T14:41:02.983Z,2.10
2017-09-15T14:43:30.618Z,1.50
2017-09-15T14:45:58.227Z,2.50
2017-09-15T14:48:25.819Z,2.03
2017-09-15T14:50:53.421Z,2.37
2017-09-15T14:53:21.349Z,2.97
2017-09-15T14:55:50.012Z,3.20
2017-09-15T14:58:17.606Z,2.40
2017-09-15T15:00:45.988Z,1.50
2017-09-15T15:03:14.319Z,1.70
2017-09-15T15:05:41.929Z,1.50
2017-09-15T15:08:10.373Z,1.00
2017-09-15T15:10:37.986Z,3.43
2017-09-15T15:13:05.577Z,1.97
2017-09-15T15:15:33.480Z,1.40
2017-09-15T15:18:01.049Z,4.33
2017-09-15T15:20:28.684Z,3.30
2017-09-15T15:22:56.285Z,4.37
2017-09-15T15:25:23.875Z,3.60
2017-09-15T15:27:52.245Z,2.90
2017-09-15T15:30:19.811Z,2.40
2017-09-15T15:32:47.412Z,2.90
2017-09-15T15:35:14.984Z,5.27
2017-09-15T15:37:42.866Z,5.40
2017-09-15T15:40:10.454Z,3.80
2017-09-15T15:42:38.031Z,2.50
2017-09-15T15:45:05.629Z,3.53
2017-09-15T15:47:33.243Z,1.87
2017-09-15T15:50:00.822Z,1.73
2017-09-15T15:52:28.466Z,1.45
2017-09-15T15:54:56.067Z,2.17
2017-09-15T15:57:24.405Z,3.37
2017-09-15T15:59:52.501Z,3.13
2017-09-15T16:02:20.061Z,3.07
2017-09-15T16:04:48.412Z,1.63
2017-09-15T16:07:16.004Z,3.87
2017-09-15T16:09:44.365Z,1.60
2017-09-15T16:12:11.942Z,4.53
2017-09-15T16:14:40.296Z,4.80
2017-09-15T16:17:07.882Z,2.67
2017-09-15T16:19:36.258Z,3.10
2017-09-15T16:22:04.947Z,2.70
2017-09-15T16:24:33.311Z,2.17
2017-09-15T16:27:01.684Z,4.37
2017-09-15T16:29:30.064Z,3.00
2017-09-15T16:31:58.436Z,2.40
2017-09-15T16:34:26.818Z,3.70
2017-09-15T16:36:55.168Z,2.67
2017-09-15T16:39:28.296Z,4.30
2017-09-15T16:42:02.228Z,3.37
2017-09-15T16:44:35.608Z,4.07
2017-09-15T16:47:08.740Z,1.87
2017-09-15T16:49:35.868Z,4.63
2017-09-15T16:52:03.440Z,2.43
2017-09-15T16:54:31.328Z,3.30
2017-09-15T16:56:59.679Z,2.78
2017-09-15T16:59:27.293Z,5.18
2017-09-15T17:01:54.895Z,3.23
2017-09-15T17:04:22.520Z,3.00
2017-09-15T17:06:52.142Z,3.30
2017-09-15T17:09:19.708Z,6.40
2017-09-15T17:11:47.274Z,4.50
2017-09-15T17:14:14.908Z,5.67
2017-09-15T17:16:42.548Z,4.15
2017-09-15T17:19:10.337Z,5.70
2017-09-15T17:21:38.672Z,4.53
2017-09-15T17:24:06.279Z,7.40
2017-09-15T17:26:33.878Z,9.60
2017-09-15T17:29:01.804Z,22.17
2017-09-15T17:31:29.389Z,7.83
2017-09-15T17:33:57.001Z,7.53
2017-09-15T17:36:25.387Z,12.57
2017-09-15T17:38:53.735Z,11.03
2017-09-15T17:41:21.311Z,7.17
2017-09-15T17:43:48.899Z,3.80
2017-09-15T17:46:16.847Z,4.13
2017-09-15T17:48:45.225Z,4.75
2017-09-15T17:51:13.563Z,5.63
2017-09-15T17:53:41.142Z,7.37
2017-09-15T17:56:08.733Z,5.60
2017-09-15T17:58:36.367Z,5.87
2017-09-15T18:01:03.966Z,5.60
2017-09-15T18:03:31.721Z,3.13
2017-09-15T18:05:59.322Z,5.17
2017-09-15T18:08:27.213Z,4.90
2017-09-15T18:10:54.787Z,3.70
2017-09-15T18:13:23.134Z,3.63
2017-09-15T18:15:50.765Z,3.97
2017-09-15T18:18:18.347Z,7.47
2017-09-15T18:20:45.942Z,3.83
2017-09-15T18:23:14.340Z,4.73
2017-09-15T18:25:42.279Z,5.90
2017-09-15T18:28:09.881Z,4.03
2017-09-15T18:30:37.450Z,3.60
2017-09-15T18:33:05.027Z,8.47
2017-09-15T18:35:32.612Z,5.80
2017-09-15T18:38:00.209Z,4.83
2017-09-15T18:40:27.806Z,5.75
2017-09-15T18:42:55.695Z,4.07
2017-09-15T18:45:23.288Z,4.47
2017-09-15T18:47:50.882Z,4.10
2017-09-15T18:50:18.475Z,5.50
2017-09-15T18:52:46.034Z,8.70
2017-09-15T18:55:13.650Z,5.43
2017-09-15T18:57:41.251Z,6.40
2017-09-15T19:00:09.113Z,8.52
2017-09-15T19:02:36.734Z,12.47
2017-09-15T19:05:04.351Z,11.00
2017-09-15T19:07:32.728Z,10.10
2017-09-15T19:10:01.098Z,15.70
2017-09-15T19:12:28.743Z,10.47
2017-09-15T19:14:56.369Z,9.77
2017-09-15T19:17:23.993Z,8.55
2017-09-15T19:19:52.460Z,8.00
2017-09-15T19:22:20.328Z,8.87
2017-09-15T19:24:48.779Z,8.20
2017-09-15T19:27:16.460Z,7.05
2017-09-15T19:29:44.071Z,10.17
2017-09-15T19:32:11.834Z,10.03
2017-09-15T19:34:39.485Z,10.50
2017-09-15T19:37:07.078Z,8.40
2017-09-15T19:39:34.966Z,11.13
2017-09-15T19:42:02.565Z,8.90
2017-09-15T19:44:30.169Z,8.50
2017-09-15T19:46:57.782Z,8.97
2017-09-15T19:49:25.351Z,8.60
2017-09-15T19:51:53.206Z,7.83
2017-09-15T19:54:21.569Z,7.10
2017-09-15T19:56:49.935Z,7.90
2017-09-15T19:59:17.512Z,9.27
2017-09-15T20:01:45.077Z,9.30
2017-09-15T20:04:12.696Z,13.07
2017-09-15T20:06:41.327Z,7.40
2017-09-15T20:09:09.036Z,8.90
2017-09-15T20:11:36.730Z,7.93
2017-09-15T20:14:05.235Z,8.10
2017-09-15T20:16:32.837Z,7.67
2017-09-15T20:19:00.709Z,7.67
2017-09-15T20:21:28.319Z,7.80
2017-09-15T20:23:55.886Z,12.97
2017-09-15T20:26:23.594Z,8.93
2017-09-15T20:28:51.184Z,9.53
2017-09-15T20:31:19.533Z,9.90
2017-09-15T20:33:47.121Z,9.03
2017-09-15T20:36:15.498Z,5.73
2017-09-15T20:38:43.183Z,7.70
2017-09-15T20:41:11.176Z,5.83
2017-09-15T20:43:38.780Z,7.07
2017-09-15T20:46:07.140Z,6.70
2017-09-15T20:48:34.749Z,7.70
2017-09-15T20:51:03.629Z,7.93
2017-09-15T20:53:31.966Z,8.77
2017-09-15T20:55:59.551Z,8.27
2017-09-15T20:58:27.893Z,7.57
2017-09-15T21:00:56.405Z,8.10
2017-09-15T21:03:25.035Z,6.10
2017-09-15T21:05:52.771Z,9.90
2017-09-15T21:08:20.403Z,7.12
2017-09-15T21:10:47.996Z,8.00
2017-09-15T21:13:15.569Z,7.72
2017-09-15T21:15:43.140Z,9.10
2017-09-15T21:18:10.778Z,9.23
2017-09-15T21:20:38.387Z,9.37
2017-09-15T21:23:05.984Z,9.07
2017-09-15T21:25:34.178Z,7.97
2017-09-15T21:28:01.737Z,7.07
2017-09-15T21:30:29.530Z,8.67
2017-09-15T21:32:57.126Z,8.17
2017-09-15T21:35:25.465Z,7.85
2017-09-15T21:37:53.305Z,8.87
2017-09-15T21:40:20.931Z,8.90
2017-09-15T21:42:48.854Z,8.90
2017-09-15T21:45:17.178Z,7.43
2017-09-15T21:47:45.527Z,7.00
2017-09-15T21:50:13.160Z,10.20
2017-09-15T21:52:40.775Z,7.30
2017-09-15T21:55:09.438Z,7.73
2017-09-15T21:57:37.032Z,8.40
2017-09-15T22:00:04.603Z,9.33
2017-09-15T22:02:32.360Z,6.50
2017-09-15T22:04:59.950Z,6.62
2017-09-15T22:07:27.557Z,6.20
2017-09-15T22:09:56.824Z,10.03
2017-09-15T22:12:24.393Z,10.37
2017-09-15T22:14:51.948Z,7.30
2017-09-15T22:17:19.903Z,7.60
2017-09-15T22:19:47.485Z,7.23
2017-09-15T22:22:15.039Z,6.57
2017-09-15T22:24:42.649Z,7.63
2017-09-15T22:27:10.210Z,7.90
2017-09-15T22:29:37.785Z,7.50
2017-09-15T22:32:05.367Z,9.03
2017-09-15T22:34:34.026Z,6.50
2017-09-15T22:37:01.597Z,5.40
2017-09-15T22:39:29.210Z,8.07
2017-09-15T22:41:57.748Z,8.10
2017-09-15T22:44:25.364Z,8.03
2017-09-15T22:46:52.953Z,8.23
2017-09-15T22:49:20.539Z,6.80
2017-09-15T22:51:48.480Z,5.93
2017-09-15T22:54:28.000Z,6.37
2017-09-15T22:56:55.881Z,6.37
2017-09-15T22:59:23.546Z,5.45
2017-09-15T23:01:51.103Z,7.80
2017-09-15T23:04:19.452Z,7.63
2017-09-15T23:06:47.026Z,6.10
2017-09-15T23:09:14.609Z,7.23
2017-09-15T23:11:42.198Z,6.20
2017-09-15T23:14:10.865Z,7.37
2017-09-15T23:16:38.419Z,8.37
2017-09-15T23:19:05.979Z,6.00
2017-09-15T23:21:33.867Z,6.37
2017-09-15T23:24:02.290Z,11.00
2017-09-15T23:26:29.897Z,6.83
2017-09-15T23:28:57.474Z,6.07
2017-09-15T23:31:26.131Z,16.13
2017-09-15T23:33:53.718Z,4.50
2017-09-15T23:36:22.158Z,5.33
2017-09-15T23:38:49.740Z,4.97
2017-09-15T23:41:17.300Z,8.13
2017-09-15T23:43:44.873Z,6.63
2017-09-15T23:46:12.426Z,6.03
2017-09-15T23:48:40.781Z,4.77
2017-09-15T23:51:08.347Z,5.45
2017-09-15T23:53:36.397Z,4.43
2017-09-15T23:56:03.967Z,4.70
2017-09-15T23:58:31.530Z,4.33
